Time;durP1;ratioP1;P1;durP2;ratioP2;P2;SDS_P1;SDS_P2;PMS_P1;PMS_P2;Temp;Humidity;BMP_temperature;BMP_pressure;BME280_temperature;BME280_humidity;BME280_pressure;Samples;Min_cycle;Max_cycle;Signal;HPM_P1;HPM_P2
2024/01/21 00:15:15;;;;;;;32.22;13.95;;;0.70;92.10;;;;;;6000106;23;20095;-66
2024/01/21 00:18:20;;;;;;;27.43;14.30;;;0.70;92.00;;;;;;5925759;24;20005;-65
2024/01/21 00:20:45;;;;;;;26.07;13.93;;;0.70;92.00;;;;;;5899638;24;20017;-66
2024/01/21 00:23:51;;;;;;;27.80;14.63;;;0.70;92.20;;;;;;5974851;24;20076;-66
2024/01/21 00:26:26;;;;;;;27.03;13.73;;;0.70;92.10;;;;;;5897442;24;20349;-67
2024/01/21 00:28:52;;;;;;;34.17;14.50;;;0.70;92.00;;;;;;5937017;24;20386;-66
2024/01/21 00:31:18;;;;;;;27.37;14.63;;;0.70;92.20;;;;;;6098506;23;20043;-67
2024/01/21 00:33:44;;;;;;;30.00;15.23;;;0.70;92.20;;;;;;6186580;23;20036;-67
2024/01/21 00:36:11;;;;;;;28.07;14.00;;;0.60;92.10;;;;;;6184742;23;20009;-67
2024/01/21 00:38:38;;;;;;;30.87;15.23;;;0.60;92.40;;;;;;6186082;23;20004;-67
2024/01/21 00:41:04;;;;;;;33.13;16.47;;;0.60;92.30;;;;;;6159800;23;20379;-66
2024/01/21 00:43:30;;;;;;;30.77;15.87;;;0.60;92.30;;;;;;6186522;23;20307;-67
2024/01/21 00:45:56;;;;;;;31.57;16.27;;;0.60;92.40;;;;;;6186286;23;20009;-67
2024/01/21 00:48:22;;;;;;;38.43;17.37;;;0.60;92.40;;;;;;6186060;23;19997;-66
2024/01/21 00:50:48;;;;;;;34.27;17.03;;;0.50;92.30;;;;;;6185721;23;20024;-67
2024/01/21 00:53:14;;;;;;;34.30;16.60;;;0.50;92.40;;;;;;6185846;23;20001;-67
2024/01/21 00:55:39;;;;;;;32.63;16.13;;;0.40;92.30;;;;;;6185834;23;20009;-66
2024/01/21 00:58:05;;;;;;;31.87;15.67;;;0.40;92.40;;;;;;6185999;23;20415;-67
2024/01/21 01:00:31;;;;;;;32.27;16.00;;;0.40;92.50;;;;;;6185854;23;20056;-67
2024/01/21 01:02:57;;;;;;;29.10;15.43;;;0.40;92.50;;;;;;6185634;23;20023;-68
2024/01/21 01:05:23;;;;;;;24.33;13.10;;;0.30;92.40;;;;;;6186163;23;20001;-67
2024/01/21 01:07:48;;;;;;;32.97;15.07;;;0.40;92.50;;;;;;6185760;23;20005;-66
2024/01/21 01:10:15;;;;;;;34.53;15.97;;;0.40;92.50;;;;;;6185403;23;20001;-66
2024/01/21 01:12:41;;;;;;;32.20;16.33;;;0.40;92.60;;;;;;6184414;23;20024;-66
2024/01/21 01:15:11;;;;;;;33.63;15.83;;;0.40;92.70;;;;;;6185651;23;20013;-66
2024/01/21 01:17:37;;;;;;;29.77;14.43;;;0.30;93.00;;;;;;6186111;23;20001;-66
2024/01/21 01:20:03;;;;;;;27.03;13.97;;;0.30;93.20;;;;;;6186001;23;20001;-66
2024/01/21 01:22:29;;;;;;;25.50;11.90;;;0.20;93.30;;;;;;6185755;23;20008;-67
2024/01/21 01:24:54;;;;;;;28.80;13.77;;;0.20;93.40;;;;;;6185794;23;20001;-66
2024/01/21 01:27:20;;;;;;;26.30;13.70;;;0.20;93.50;;;;;;6185910;23;20451;-66
2024/01/21 01:29:46;;;;;;;24.53;12.73;;;0.20;93.60;;;;;;6186644;23;20008;-67
2024/01/21 01:32:12;;;;;;;22.97;11.97;;;0.20;93.90;;;;;;6186332;23;20083;-66
2024/01/21 01:34:38;;;;;;;20.90;11.83;;;0.20;94.40;;;;;;6184922;23;20509;-66
2024/01/21 01:37:04;;;;;;;20.80;10.87;;;0.20;94.00;;;;;;6185856;23;20004;-65
2024/01/21 01:39:55;;;;;;;17.53;8.97;;;0.20;93.70;;;;;;6186350;23;20005;-66
2024/01/21 01:43:02;;;;;;;20.87;8.87;;;0.20;93.60;;;;;;6185992;23;20327;-66
2024/01/21 01:49:05;;;;;;;13.83;6.97;;;0.30;93.50;;;;;;6184843;23;20099;-66
2024/01/21 01:52:11;;;;;;;12.40;6.60;;;0.30;93.60;;;;;;6185737;23;20309;-66
2024/01/21 01:54:50;;;;;;;19.00;7.23;;;0.30;93.60;;;;;;6144614;23;20332;-66
2024/01/21 02:00:28;;;;;;;17.73;8.87;;;0.40;93.20;;;;;;6135595;23;20017;-75
2024/01/21 02:03:33;;;;;;;14.23;7.70;;;0.40;93.00;;;;;;6182228;23;19997;-67
2024/01/21 02:05:59;;;;;;;15.50;7.27;;;0.40;92.70;;;;;;6184754;23;20001;-66
2024/01/21 02:08:25;;;;;;;12.07;7.17;;;0.40;92.50;;;;;;6185351;23;20044;-66
2024/01/21 02:10:51;;;;;;;12.10;7.13;;;0.40;92.10;;;;;;6184911;23;20304;-66
2024/01/21 02:13:16;;;;;;;12.57;6.50;;;0.40;92.60;;;;;;6184676;23;20013;-67
2024/01/21 02:15:43;;;;;;;8.00;4.10;;;0.30;93.10;;;;;;6185046;23;20013;-74
2024/01/21 02:18:09;;;;;;;7.97;4.07;;;0.30;93.10;;;;;;6185206;23;20327;-66
2024/01/21 02:20:35;;;;;;;6.83;3.07;;;0.20;92.30;;;;;;6184532;23;20328;-66
2024/01/21 02:23:02;;;;;;;8.73;4.07;;;0.20;92.20;;;;;;6185168;23;20001;-66
2024/01/21 02:25:27;;;;;;;9.43;5.17;;;0.20;91.90;;;;;;6184961;23;20009;-66
2024/01/21 02:27:53;;;;;;;19.03;10.30;;;0.30;92.40;;;;;;6185031;23;20087;-67
2024/01/21 02:30:19;;;;;;;22.57;10.27;;;0.30;91.50;;;;;;6185215;23;20005;-66
2024/01/21 02:32:46;;;;;;;22.80;10.23;;;0.30;91.50;;;;;;6184810;23;20025;-70
2024/01/21 02:35:12;;;;;;;25.90;11.47;;;0.40;91.70;;;;;;6184920;23;20013;-66
2024/01/21 02:37:37;;;;;;;24.13;11.60;;;0.30;91.70;;;;;;6185379;23;20001;-66
2024/01/21 02:40:04;;;;;;;19.53;10.87;;;0.20;92.00;;;;;;6185186;23;20005;-66
2024/01/21 02:42:29;;;;;;;20.07;11.43;;;0.10;92.30;;;;;;6185144;23;20430;-67
2024/01/21 02:44:55;;;;;;;21.27;10.97;;;0.00;92.70;;;;;;6184306;23;20063;-66
2024/01/21 02:47:23;;;;;;;21.77;11.67;;;0.00;93.20;;;;;;6184475;23;20466;-66
2024/01/21 02:49:49;;;;;;;19.33;11.07;;;-0.20;93.90;;;;;;6185122;23;20001;-66
2024/01/21 02:52:14;;;;;;;20.03;9.90;;;-0.30;94.10;;;;;;6185054;23;20164;-66
2024/01/21 02:54:40;;;;;;;18.53;9.17;;;-0.30;94.30;;;;;;6184788;23;20013;-66
2024/01/21 02:57:06;;;;;;;18.03;8.50;;;-0.30;94.60;;;;;;6185071;23;20001;-66
2024/01/21 02:59:32;;;;;;;14.60;8.10;;;-0.30;94.50;;;;;;6158264;23;20009;-66
2024/01/21 03:01:57;;;;;;;14.57;8.40;;;-0.30;94.40;;;;;;6184267;23;20048;-66
2024/01/21 03:04:23;;;;;;;16.93;7.73;;;-0.30;94.40;;;;;;6185298;23;20088;-66
2024/01/21 03:06:49;;;;;;;20.40;7.87;;;-0.30;94.20;;;;;;6185045;23;20015;-67
2024/01/21 03:09:15;;;;;;;15.00;8.40;;;-0.30;93.90;;;;;;6184575;23;20008;-66
2024/01/21 03:11:41;;;;;;;17.10;9.03;;;-0.30;93.80;;;;;;6185647;23;20490;-66
2024/01/21 03:14:07;;;;;;;16.07;9.60;;;-0.30;94.10;;;;;;6185331;23;20465;-67
2024/01/21 03:16:33;;;;;;;17.37;9.40;;;-0.40;94.40;;;;;;6185410;23;20080;-66
2024/01/21 03:18:59;;;;;;;18.67;9.80;;;-0.40;94.60;;;;;;6185487;23;20336;-66
2024/01/21 03:25:57;;;;;;;21.97;10.97;;;-0.30;94.30;;;;;;6007160;23;20016;-66
2024/01/21 03:28:52;;;;;;;24.73;10.60;;;-0.30;94.00;;;;;;5978869;24;20111;-67
2024/01/21 03:31:21;;;;;;;27.30;10.37;;;-0.40;94.20;;;;;;5924193;24;20009;-66
2024/01/21 03:34:17;;;;;;;21.13;10.67;;;-0.40;94.00;;;;;;6036291;23;20096;-66
2024/01/21 03:36:43;;;;;;;25.37;10.37;;;-0.40;94.20;;;;;;6184451;23;20385;-66
2024/01/21 03:39:12;;;;;;;19.43;9.13;;;-0.50;94.40;;;;;;6184359;23;20001;-65
2024/01/21 03:41:38;;;;;;;17.80;9.63;;;-0.50;94.10;;;;;;6184840;23;20004;-66
2024/01/21 03:44:53;;;;;;;24.23;11.77;;;-0.40;94.10;;;;;;6184941;23;20029;-66
2024/01/21 03:47:19;;;;;;;21.80;10.90;;;-0.50;93.90;;;;;;6157463;23;20005;-67
2024/01/21 03:49:45;;;;;;;21.90;11.03;;;-0.40;93.90;;;;;;6184612;23;20001;-66
2024/01/21 03:52:11;;;;;;;21.37;11.13;;;-0.50;93.90;;;;;;6184635;23;20001;-67
2024/01/21 03:54:36;;;;;;;21.33;10.67;;;-0.50;94.10;;;;;;6184089;23;20036;-66
2024/01/21 03:57:03;;;;;;;23.13;11.60;;;-0.60;94.40;;;;;;6184324;23;20285;-66
2024/01/21 03:59:28;;;;;;;18.50;9.57;;;-0.60;94.40;;;;;;6185967;23;20344;-66
2024/01/21 04:01:54;;;;;;;22.47;10.70;;;-0.60;94.40;;;;;;6186769;23;19997;-69
2024/01/21 04:04:20;;;;;;;17.53;9.60;;;-0.60;94.40;;;;;;6186763;23;20001;-66
2024/01/21 04:06:46;;;;;;;24.10;10.27;;;-0.70;94.30;;;;;;6186391;23;20008;-67
2024/01/21 04:09:13;;;;;;;20.90;10.13;;;-0.70;94.40;;;;;;6185867;23;20001;-66
2024/01/21 04:11:44;;;;;;;19.13;10.27;;;-0.70;94.40;;;;;;6186567;23;20221;-66
2024/01/21 04:14:09;;;;;;;19.87;10.67;;;-0.70;94.30;;;;;;6184872;23;20017;-66
2024/01/21 04:16:35;;;;;;;19.90;9.73;;;-0.70;94.30;;;;;;6186617;23;20009;-66
2024/01/21 04:19:01;;;;;;;19.33;8.77;;;-0.70;94.50;;;;;;6186294;23;20005;-67
2024/01/21 04:21:27;;;;;;;18.03;9.30;;;-0.70;94.30;;;;;;6186383;23;19997;-66
2024/01/21 04:23:52;;;;;;;16.57;8.97;;;-0.70;94.20;;;;;;6186323;23;20009;-66
2024/01/21 04:26:19;;;;;;;16.47;8.73;;;-0.70;94.20;;;;;;6186221;23;20001;-67
2024/01/21 04:28:45;;;;;;;18.03;8.17;;;-0.70;94.00;;;;;;6186309;23;20009;-66
2024/01/21 04:31:10;;;;;;;11.73;6.43;;;-0.80;94.10;;;;;;6184344;23;20058;-66
2024/01/21 04:33:36;;;;;;;13.93;7.13;;;-0.80;94.10;;;;;;6186038;23;20001;-66
2024/01/21 04:36:03;;;;;;;15.30;8.20;;;-0.70;94.30;;;;;;6185982;23;20012;-66
2024/01/21 04:38:29;;;;;;;13.63;6.87;;;-0.80;94.00;;;;;;6186170;23;20055;-66
2024/01/21 04:40:54;;;;;;;11.53;6.43;;;-0.80;94.40;;;;;;6186213;23;20005;-66
2024/01/21 04:43:20;;;;;;;10.83;5.73;;;-0.80;94.70;;;;;;6186166;23;20079;-67
2024/01/21 04:45:46;;;;;;;9.20;5.17;;;-0.80;94.50;;;;;;6185840;23;20004;-67
2024/01/21 04:48:12;;;;;;;12.43;6.17;;;-0.80;93.90;;;;;;6185964;23;20005;-66
2024/01/21 04:50:37;;;;;;;12.10;5.53;;;-0.80;93.80;;;;;;6186643;23;20120;-66
2024/01/21 04:53:03;;;;;;;10.23;5.50;;;-0.80;93.70;;;;;;6186615;23;20439;-67
2024/01/21 04:55:29;;;;;;;10.50;5.20;;;-0.70;93.60;;;;;;6186383;23;20017;-66
2024/01/21 04:57:55;;;;;;;12.70;6.27;;;-0.80;93.90;;;;;;6186496;23;20016;-67
2024/01/21 05:00:21;;;;;;;11.20;5.93;;;-0.80;93.80;;;;;;6186507;23;19997;-69
2024/01/21 05:06:56;;;;;;;14.30;6.57;;;-0.70;93.50;;;;;;6065846;23;20095;-67
2024/01/21 05:13:03;;;;;;;13.27;6.07;;;-0.70;93.40;;;;;;5908688;24;20057;-67
2024/01/21 05:22:31;;;;;;;7.70;3.93;;;-0.80;93.20;;;;;;5870559;24;20033;-66
2024/01/21 05:25:42;;;;;;;8.70;4.27;;;-0.60;93.30;;;;;;5949700;24;20436;-66
2024/01/21 05:28:10;;;;;;;7.13;3.97;;;-0.60;92.80;;;;;;5934073;24;20036;-66
2024/01/21 05:30:56;;;;;;;8.53;3.90;;;-0.70;92.80;;;;;;6054340;23;20315;-66
2024/01/21 05:33:22;;;;;;;6.27;2.93;;;-0.60;92.80;;;;;;6158588;23;20084;-66
2024/01/21 05:35:48;;;;;;;7.87;4.23;;;-0.60;92.80;;;;;;6185657;23;20055;-66
2024/01/21 05:38:14;;;;;;;7.13;4.00;;;-0.70;92.90;;;;;;6185497;23;19997;-66
2024/01/21 05:40:40;;;;;;;7.00;3.87;;;-0.70;93.30;;;;;;6185933;23;20009;-67
2024/01/21 05:43:05;;;;;;;5.10;2.43;;;-0.80;93.50;;;;;;6185562;23;20076;-66
2024/01/21 05:45:31;;;;;;;4.00;1.80;;;-0.80;93.40;;;;;;6185216;23;20001;-67
2024/01/21 05:47:57;;;;;;;3.77;1.50;;;-0.70;93.20;;;;;;6159141;23;20439;-66
2024/01/21 05:50:22;;;;;;;3.87;1.70;;;-0.70;92.90;;;;;;6185456;23;20012;-67
2024/01/21 05:52:48;;;;;;;3.10;1.60;;;-0.70;92.70;;;;;;6185400;23;20012;-66
2024/01/21 05:55:14;;;;;;;3.37;1.60;;;-0.70;92.40;;;;;;6185237;23;20039;-66
2024/01/21 05:57:40;;;;;;;2.97;1.60;;;-0.60;92.30;;;;;;6185573;23;20012;-67
2024/01/21 06:00:07;;;;;;;4.27;2.40;;;-0.60;92.10;;;;;;6185623;23;20009;-66
2024/01/21 06:02:33;;;;;;;6.67;2.97;;;-0.50;91.70;;;;;;6185770;23;20447;-67
2024/01/21 06:04:59;;;;;;;6.30;2.90;;;-0.40;91.50;;;;;;6211467;23;20028;-66
2024/01/21 06:18:01;;;;;;;12.20;4.67;;;-0.50;91.50;;;;;;6063769;23;20019;-67
2024/01/21 06:21:20;;;;;;;10.43;5.30;;;-0.60;91.80;;;;;;6031561;23;20050;-67
2024/01/21 06:24:04;;;;;;;15.80;6.67;;;-0.70;92.00;;;;;;6034621;23;20038;-66
2024/01/21 06:26:30;;;;;;;15.03;7.63;;;-0.70;92.10;;;;;;6039193;23;20081;-66
2024/01/21 06:32:20;;;;;;;;;;;-0.80;92.50;;;;;;5973198;23;20015;-66
2024/01/21 06:34:46;;;;;;;10.47;5.80;;;-0.90;92.60;;;;;;6102372;23;19963;-66
2024/01/21 06:37:12;;;;;;;17.40;7.97;;;-0.90;92.50;;;;;;6152696;23;20006;-66
2024/01/21 06:39:38;;;;;;;20.87;8.37;;;-0.90;92.80;;;;;;6153040;23;20008;-67
2024/01/21 06:42:04;;;;;;;14.73;7.37;;;-0.90;92.80;;;;;;6152996;23;20009;-66
2024/01/21 06:44:29;;;;;;;19.87;8.53;;;-0.90;92.90;;;;;;6152407;23;20055;-66
2024/01/21 06:46:55;;;;;;;16.47;8.37;;;-0.90;92.80;;;;;;6153072;23;20009;-71
2024/01/21 06:49:21;;;;;;;12.57;7.57;;;-0.90;92.60;;;;;;6153233;23;20005;-68
2024/01/21 06:51:53;;;;;;;16.93;8.27;;;-0.90;92.60;;;;;;6153467;23;20006;-66
2024/01/21 06:54:19;;;;;;;14.02;7.85;;;-0.90;92.70;;;;;;6187936;23;20012;-65
2024/01/21 06:56:44;;;;;;;14.13;6.57;;;-1.00;92.80;;;;;;6214608;23;20000;-65
2024/01/21 06:59:10;;;;;;;11.73;6.03;;;-1.10;92.80;;;;;;6214878;23;20136;-65
2024/01/21 07:01:36;;;;;;;12.80;5.97;;;-1.10;92.80;;;;;;6214997;23;20079;-68
2024/01/21 07:04:02;;;;;;;11.33;5.67;;;-1.10;93.10;;;;;;6214755;23;20017;-65
2024/01/21 07:06:28;;;;;;;13.03;5.97;;;-1.10;93.00;;;;;;6214654;23;20020;-65
2024/01/21 07:08:55;;;;;;;12.60;6.03;;;-1.10;92.90;;;;;;6214374;23;20005;-66
2024/01/21 07:11:21;;;;;;;10.93;6.07;;;-1.10;93.20;;;;;;6214814;23;20000;-65
2024/01/21 07:13:47;;;;;;;11.70;5.63;;;-1.00;92.90;;;;;;6213008;23;20005;-65
2024/01/21 07:16:13;;;;;;;10.90;5.20;;;-1.00;92.70;;;;;;6214211;23;20012;-66
2024/01/21 07:18:39;;;;;;;10.63;5.57;;;-0.90;92.70;;;;;;6214221;23;20005;-66
2024/01/21 07:21:04;;;;;;;11.20;6.10;;;-0.90;92.60;;;;;;6213963;23;20011;-65
2024/01/21 07:23:30;;;;;;;13.40;6.30;;;-0.80;92.50;;;;;;6213977;23;20004;-65
2024/01/21 07:25:56;;;;;;;12.63;6.67;;;-0.70;92.20;;;;;;6214130;23;20072;-65
2024/01/21 07:28:22;;;;;;;11.63;6.60;;;-0.70;92.10;;;;;;6213930;23;20004;-66
2024/01/21 07:30:48;;;;;;;11.83;6.47;;;-0.60;92.20;;;;;;6211133;23;20012;-67
2024/01/21 07:33:14;;;;;;;12.77;6.67;;;-0.70;92.60;;;;;;6211388;23;20008;-66
2024/01/21 07:35:40;;;;;;;13.33;6.67;;;-0.70;92.70;;;;;;6213027;23;20016;-66
2024/01/21 07:38:15;;;;;;;11.70;6.17;;;-0.60;92.70;;;;;;6213595;23;20080;-66
2024/01/21 07:40:42;;;;;;;12.83;6.47;;;-0.50;92.20;;;;;;6213350;23;20052;-66
2024/01/21 07:43:10;;;;;;;10.93;5.97;;;-0.30;91.70;;;;;;6214139;23;20335;-67
2024/01/21 07:49:08;;;;;;;9.67;5.60;;;-0.20;91.40;;;;;;6171245;23;20012;-65
2024/01/21 07:52:45;;;;;;;13.87;6.40;;;-0.10;91.40;;;;;;6094347;23;20110;-66
2024/01/21 07:55:55;;;;;;;14.90;7.00;;;0.00;91.50;;;;;;6009210;23;20026;-66
2024/01/21 07:58:36;;;;;;;15.27;8.03;;;0.00;91.70;;;;;;5898110;24;20050;-66
2024/01/21 08:01:47;;;;;;;16.50;8.17;;;0.10;91.60;;;;;;5898725;24;20089;-65
2024/01/21 08:07:29;;;;;;;13.13;7.35;;;0.20;92.10;;;;;;5839480;24;20111;-65
2024/01/21 08:09:56;;;;;;;13.80;7.10;;;0.20;91.70;;;;;;6044758;23;20054;-67
2024/01/21 08:12:22;;;;;;;14.47;7.10;;;0.40;91.80;;;;;;6066366;23;20412;-65
2024/01/21 08:14:48;;;;;;;12.63;7.47;;;0.40;92.10;;;;;;6065560;23;20015;-74
2024/01/21 08:17:14;;;;;;;15.57;8.67;;;0.50;92.20;;;;;;6182143;23;20037;-66
2024/01/21 08:19:40;;;;;;;15.20;8.47;;;0.60;92.10;;;;;;6185053;23;20435;-65
2024/01/21 08:22:10;;;;;;;15.00;8.53;;;0.60;92.20;;;;;;6184929;23;20056;-66
2024/01/21 08:24:36;;;;;;;17.17;9.07;;;0.60;92.30;;;;;;6185632;23;20328;-69
2024/01/21 08:27:02;;;;;;;18.07;9.27;;;0.70;92.80;;;;;;6184830;23;19997;-69
2024/01/21 08:29:28;;;;;;;15.23;8.00;;;0.70;92.80;;;;;;6185630;23;20005;-65
2024/01/21 08:31:59;;;;;;;11.90;6.27;;;0.80;92.80;;;;;;6185041;23;19997;-74
2024/01/21 08:34:25;;;;;;;11.97;6.77;;;0.90;92.80;;;;;;6185206;23;20020;-66
2024/01/21 08:36:51;;;;;;;14.50;6.80;;;1.00;92.70;;;;;;6184995;23;20127;-68
2024/01/21 08:39:17;;;;;;;10.23;5.30;;;1.10;93.10;;;;;;6184960;23;20017;-65
2024/01/21 08:41:42;;;;;;;15.00;6.77;;;1.20;93.40;;;;;;6185527;23;20003;-65
2024/01/21 08:44:08;;;;;;;20.93;10.37;;;1.30;93.90;;;;;;6185245;23;20025;-65
2024/01/21 08:46:35;;;;;;;19.67;10.60;;;;;;;;;;6184999;23;20009;-65
2024/01/21 08:49:01;;;;;;;15.70;8.90;;;;;;;;;;6185051;23;20047;-66
2024/01/21 08:51:27;;;;;;;11.57;6.20;;;1.50;99.90;;;;;;6185881;23;20439;-63
2024/01/21 08:53:56;;;;;;;6.57;3.60;;;1.60;94.20;;;;;;6186179;23;20005;-65
2024/01/21 08:56:24;;;;;;;4.23;2.10;;;1.70;94.70;;;;;;6185091;23;20005;-65
2024/01/21 08:58:50;;;;;;;3.50;1.60;;;1.80;96.00;;;;;;6185093;23;20040;-65
2024/01/21 09:01:17;;;;;;;7.90;1.60;;;1.90;95.30;;;;;;6184673;23;20067;-66
2024/01/21 09:03:42;;;;;;;4.40;1.57;;;2.00;94.60;;;;;;6185518;23;20040;-65
2024/01/21 09:06:09;;;;;;;3.03;1.13;;;2.00;94.60;;;;;;6212594;23;20013;-65
2024/01/21 09:08:35;;;;;;;5.30;1.10;;;2.10;93.60;;;;;;6215356;23;20011;-64
2024/01/21 09:11:01;;;;;;;4.77;1.43;;;2.20;93.40;;;;;;6215843;23;20028;-65
2024/01/21 09:13:27;;;;;;;3.10;1.40;;;2.30;88.90;;;;;;6216370;23;19997;-70
2024/01/21 09:15:53;;;;;;;3.10;1.43;;;2.30;87.60;;;;;;6189890;23;20013;-65
2024/01/21 09:18:18;;;;;;;4.50;1.23;;;2.40;87.60;;;;;;6215800;23;20378;-65
2024/01/21 09:20:44;;;;;;;3.70;1.47;;;2.50;87.70;;;;;;6216320;23;20084;-66
2024/01/21 09:23:10;;;;;;;3.43;1.50;;;2.60;89.20;;;;;;6215927;23;20448;-65
2024/01/21 09:43:15;;;;;;;;;;;;;;;;;;;;;
2024/01/21 09:45:43;;;;;;;3.07;1.47;;;3.20;91.20;;;;;;5964096;23;20095;-65
2024/01/21 09:49:18;;;;;;;2.67;1.10;;;3.20;91.10;;;;;;6215310;23;20012;-65
2024/01/21 09:51:46;;;;;;;4.53;1.23;;;;;;;;;;6096757;23;20341;-65
2024/01/21 09:54:12;;;;;;;2.03;0.90;;;;;;;;;;6215229;23;20330;-67
2024/01/21 09:56:39;;;;;;;3.27;1.40;;;;;;;;;;6215208;23;20394;-65
2024/01/21 09:59:05;;;;;;;2.40;1.03;;;;;;;;;;6212741;23;20378;-66
2024/01/21 10:01:32;;;;;;;2.30;1.07;;;3.50;61.40;;;;;;6185325;23;20008;-66
2024/01/21 10:03:58;;;;;;;2.80;1.33;;;3.60;62.20;;;;;;6185930;23;20749;-66
2024/01/21 10:06:25;;;;;;;2.20;1.10;;;3.70;63.90;;;;;;6214861;23;20017;-66
2024/01/21 10:08:51;;;;;;;1.50;0.83;;;3.70;63.10;;;;;;6215207;23;20327;-66
2024/01/21 10:11:16;;;;;;;2.20;1.13;;;3.70;62.20;;;;;;6215319;23;19997;-66
2024/01/21 10:13:44;;;;;;;1.67;0.90;;;3.80;60.40;;;;;;6214933;23;20005;-66
2024/01/21 10:16:11;;;;;;;2.50;1.10;;;3.80;59.60;;;;;;6215258;23;20017;-66
2024/01/21 10:18:38;;;;;;;6.43;1.67;;;3.90;58.70;;;;;;6214877;23;20083;-66
2024/01/21 10:21:05;;;;;;;3.03;1.33;;;;;;;;;;6212689;23;20418;-67
2024/01/21 10:23:31;;;;;;;1.50;0.90;;;4.20;58.90;;;;;;6188925;23;20008;-73
2024/01/21 10:25:58;;;;;;;3.50;1.30;;;4.30;57.80;;;;;;6215236;23;20011;-72
2024/01/21 10:28:24;;;;;;;2.23;1.13;;;4.30;56.00;;;;;;6214631;23;20427;-74
2024/01/21 10:30:50;;;;;;;3.27;1.33;;;4.40;55.60;;;;;;6215333;23;20043;-74
2024/01/21 10:33:15;;;;;;;3.30;2.00;;;4.60;58.50;;;;;;6215181;23;20001;-75
2024/01/21 10:35:42;;;;;;;2.83;1.50;;;4.70;62.30;;;;;;6215415;23;20008;-74
2024/01/21 10:38:10;;;;;;;3.57;1.63;;;;;;;;;;6215566;23;20000;-75
2024/01/21 10:40:43;;;;;;;2.43;1.40;;;4.80;75.30;;;;;;6215301;23;20012;-74
2024/01/21 10:43:12;;;;;;;;;;;4.90;74.70;;;;;;6215669;23;20001;-75
2024/01/21 10:45:37;;;;;;;2.97;1.43;;;4.90;73.70;;;;;;6214126;23;20307;-75
2024/01/21 10:48:04;;;;;;;2.67;1.37;;;;;;;;;;6213301;23;20043;-74
2024/01/21 10:50:30;;;;;;;3.53;1.83;;;;;;;;;;6214002;23;20335;-74
2024/01/21 10:52:56;;;;;;;3.70;2.10;;;5.00;54.00;;;;;;6214589;23;20008;-75
2024/01/21 10:55:22;;;;;;;3.47;2.30;;;5.10;54.10;;;;;;6215577;23;20091;-74
2024/01/21 10:57:50;;;;;;;6.20;2.37;;;5.20;54.20;;;;;;6216128;23;20078;-75
2024/01/21 11:00:17;;;;;;;4.70;2.60;;;5.20;53.40;;;;;;6216069;23;20312;-75
2024/01/21 11:03:23;;;;;;;4.03;2.20;;;5.30;53.90;;;;;;6215585;23;20001;-75
2024/01/21 11:06:05;;;;;;;4.80;2.30;;;5.40;53.00;;;;;;6215414;23;20042;-74
2024/01/21 11:09:33;;;;;;;;;;;;;;;;;;;;;
2024/01/21 11:19:14;;;;;;;4.03;2.20;;;5.90;53.70;;;;;;6097758;23;20532;-74
2024/01/21 11:22:25;;;;;;;3.70;1.73;;;5.90;52.10;;;;;;6097282;23;20090;-75
2024/01/21 11:28:42;;;;;;;2.77;1.70;;;;;;;;;;5819169;24;20011;-75
2024/01/21 11:31:08;;;;;;;3.20;1.47;;;6.20;48.00;;;;;;5922854;24;20368;-75
2024/01/21 11:33:35;;;;;;;2.47;1.40;;;6.30;48.90;;;;;;6071110;23;20028;-75
2024/01/21 11:36:01;;;;;;;2.17;1.20;;;6.40;48.70;;;;;;6167470;23;20020;-75
2024/01/21 11:38:28;;;;;;;3.73;1.20;;;6.50;49.00;;;;;;6218642;23;19997;-74
2024/01/21 11:41:04;;;;;;;2.83;1.40;;;6.50;48.90;;;;;;6218448;23;20031;-75
2024/01/21 11:43:34;;;;;;;3.17;1.67;;;6.60;48.20;;;;;;6191907;23;20354;-75
2024/01/21 11:46:03;;;;;;;2.43;1.40;;;6.70;46.70;;;;;;6218822;23;20000;-75
2024/01/21 11:48:30;;;;;;;4.10;1.90;;;6.70;47.60;;;;;;6218064;23;20036;-73
2024/01/21 11:50:56;;;;;;;4.80;2.10;;;6.80;47.00;;;;;;6218218;23;20004;-75
2024/01/21 11:53:23;;;;;;;2.77;1.57;;;6.80;46.70;;;;;;6218131;23;20005;-74
2024/01/21 11:55:49;;;;;;;4.33;1.87;;;6.90;46.60;;;;;;6218004;23;20558;-74
2024/01/21 11:58:15;;;;;;;3.00;1.70;;;7.00;46.00;;;;;;6216098;23;20001;-73
2024/01/21 12:00:41;;;;;;;3.93;1.77;;;7.00;45.70;;;;;;6214777;23;20005;-74
2024/01/21 12:03:07;;;;;;;3.80;1.50;;;7.10;45.60;;;;;;6215510;23;20004;-72
2024/01/21 12:05:36;;;;;;;3.37;1.73;;;7.20;45.00;;;;;;6218051;23;20100;-74
2024/01/21 12:08:02;;;;;;;3.67;1.90;;;7.30;47.80;;;;;;6217972;23;20422;-73
2024/01/21 12:10:29;;;;;;;4.37;2.10;;;7.30;47.70;;;;;;6218717;23;20005;-66
2024/01/21 12:12:54;;;;;;;3.40;1.83;;;7.30;48.60;;;;;;6218377;23;20330;-66
2024/01/21 12:15:20;;;;;;;3.00;1.60;;;7.40;47.10;;;;;;6218105;23;20087;-66
2024/01/21 12:17:54;;;;;;;2.53;1.57;;;;;;;;;;6218105;23;20001;-65
2024/01/21 12:20:20;;;;;;;2.23;1.37;;;7.50;47.30;;;;;;6216337;23;20477;-67
2024/01/21 12:22:46;;;;;;;3.70;1.80;;;7.60;46.60;;;;;;6215513;23;20001;-67
2024/01/21 12:25:12;;;;;;;3.70;1.70;;;7.60;44.90;;;;;;6212981;23;20024;-67
2024/01/21 12:27:43;;;;;;;4.03;1.90;;;7.70;45.30;;;;;;6212456;23;20019;-67
2024/01/21 12:30:12;;;;;;;3.37;1.90;;;7.80;45.50;;;;;;6215467;23;20005;-74
2024/01/21 12:32:43;;;;;;;3.03;1.67;;;7.70;44.10;;;;;;6217584;23;20339;-76
2024/01/21 12:35:09;;;;;;;4.37;1.50;;;7.80;43.20;;;;;;6217067;23;20056;-76
2024/01/21 12:37:35;;;;;;;3.10;1.50;;;7.80;43.00;;;;;;6216716;23;20419;-75
2024/01/21 12:40:01;;;;;;;5.23;1.57;;;7.90;43.60;;;;;;6217073;23;20322;-76
2024/01/21 12:56:53;;;;;;;3.43;1.60;;;7.90;42.00;;;;;;6095552;23;20029;-75
2024/01/21 13:06:40;;;;;;;2.83;1.43;;;7.90;43.70;;;;;;5977299;23;20118;-73
2024/01/21 13:09:06;;;;;;;3.05;1.60;;;7.90;44.60;;;;;;6040020;23;20375;-75
2024/01/21 13:11:31;;;;;;;3.70;1.57;;;7.90;44.50;;;;;;6186395;23;20036;-75
2024/01/21 13:13:57;;;;;;;3.13;1.87;;;7.90;44.60;;;;;;6186350;23;20009;-75
2024/01/21 13:16:33;;;;;;;4.40;1.70;;;7.90;44.30;;;;;;6186309;23;20009;-75
2024/01/21 13:18:59;;;;;;;3.50;1.87;;;7.90;43.80;;;;;;6185899;23;20084;-74
2024/01/21 13:21:30;;;;;;;4.17;1.90;;;7.90;42.80;;;;;;6185934;23;20076;-75
2024/01/21 13:23:59;;;;;;;4.87;1.83;;;7.90;42.90;;;;;;6185907;23;20093;-75
2024/01/21 13:26:25;;;;;;;3.50;1.80;;;7.90;42.90;;;;;;6159081;23;20332;-75
2024/01/21 13:31:37;;;;;;;3.33;2.23;;;7.90;44.10;;;;;;6185371;23;20019;-74
2024/01/21 13:34:05;;;;;;;2.33;1.50;;;7.90;43.70;;;;;;6185463;23;20542;-76
2024/01/21 13:36:35;;;;;;;3.97;2.40;;;7.90;44.00;;;;;;6186068;23;20124;-75
2024/01/21 13:39:01;;;;;;;3.80;1.90;;;7.90;43.40;;;;;;6184557;23;20469;-74
2024/01/21 13:41:41;;;;;;;3.70;2.30;;;7.90;42.70;;;;;;6185765;23;20028;-74
2024/01/21 13:44:06;;;;;;;3.70;2.00;;;7.90;43.50;;;;;;6186134;23;20001;-75
2024/01/21 13:46:33;;;;;;;4.30;2.10;;;7.90;43.00;;;;;;6185703;23;20001;-74
2024/01/21 13:48:59;;;;;;;4.77;2.33;;;8.00;44.00;;;;;;6185897;23;20008;-74
2024/01/21 13:51:25;;;;;;;3.47;2.00;;;8.00;44.70;;;;;;6185747;23;20001;-75
2024/01/21 13:53:51;;;;;;;4.53;2.10;;;8.00;44.00;;;;;;6185582;23;20005;-75
2024/01/21 13:56:17;;;;;;;4.90;2.83;;;8.00;44.10;;;;;;6185770;23;20017;-75
2024/01/21 13:58:43;;;;;;;4.83;2.60;;;8.00;44.20;;;;;;6185767;23;20011;-74
2024/01/21 14:01:08;;;;;;;5.57;2.87;;;8.00;44.30;;;;;;6185240;23;20087;-75
2024/01/21 14:03:34;;;;;;;7.73;3.57;;;8.00;46.00;;;;;;6185254;23;20120;-75
2024/01/21 14:06:00;;;;;;;6.80;3.67;;;8.00;47.10;;;;;;6213493;23;20021;-75
2024/01/21 14:08:26;;;;;;;4.23;2.60;;;8.00;46.40;;;;;;6215557;23;20004;-73
2024/01/21 14:10:52;;;;;;;5.57;3.10;;;8.00;46.30;;;;;;6216272;23;20055;-75
2024/01/21 14:13:17;;;;;;;4.63;3.10;;;8.00;47.50;;;;;;6216193;23;19996;-75
2024/01/21 14:15:44;;;;;;;4.50;2.67;;;8.00;48.00;;;;;;6215980;23;20008;-76
2024/01/21 14:18:11;;;;;;;3.70;2.30;;;8.00;48.10;;;;;;6215622;23;20001;-75
2024/01/21 14:27:43;;;;;;;5.10;2.13;;;7.90;49.10;;;;;;6079823;23;20022;-74
2024/01/21 14:33:47;;;;;;;6.83;2.77;;;7.80;48.60;;;;;;6003522;23;20502;-75
2024/01/21 14:39:57;;;;;;;5.17;2.10;;;7.80;47.80;;;;;;6036252;23;20026;-75
2024/01/21 14:42:54;;;;;;;;;;;7.70;47.70;;;;;;6093962;23;20010;-75
2024/01/21 14:45:29;;;;;;;4.47;1.80;;;7.70;48.30;;;;;;6057332;23;20316;-75
2024/01/21 14:47:56;;;;;;;4.70;2.20;;;7.70;48.60;;;;;;6171307;23;20391;-74
2024/01/21 14:50:21;;;;;;;3.80;2.10;;;7.60;49.10;;;;;;6215530;23;20000;-75
2024/01/21 14:52:48;;;;;;;3.73;2.10;;;7.60;49.20;;;;;;6215410;23;20447;-75
2024/01/21 14:55:14;;;;;;;3.33;1.90;;;7.60;49.30;;;;;;6215202;23;20012;-75
2024/01/21 14:57:40;;;;;;;6.27;1.97;;;7.50;49.50;;;;;;6215131;23;20017;-73
2024/01/21 15:00:07;;;;;;;4.73;2.23;;;7.50;49.80;;;;;;6215428;23;20007;-75
2024/01/21 15:02:33;;;;;;;6.80;2.20;;;7.40;50.00;;;;;;6215129;23;20000;-75
2024/01/21 15:04:59;;;;;;;4.23;2.17;;;7.40;50.20;;;;;;6214923;23;20422;-75
2024/01/21 15:07:25;;;;;;;6.73;4.20;;;7.40;50.30;;;;;;6215189;23;20000;-74
2024/01/21 15:09:51;;;;;;;6.93;4.07;;;7.40;50.50;;;;;;6214911;23;20000;-75
2024/01/21 15:12:17;;;;;;;10.23;4.73;;;7.30;50.60;;;;;;6215084;23;20008;-74